Time;durP1;ratioP1;P1;durP2;ratioP2;P2;SDS_P1;SDS_P2;PMS_P1;PMS_P2;Temp;Humidity;BMP_temperature;BMP_pressure;BME280_temperature;BME280_humidity;BME280_pressure;Samples;Min_cycle;Max_cycle;Signal;HPM_P1;HPM_P2
2021/01/25 00:01:25;;;;;;;16.45;8.65;;;1.70;95.20;;;;;;4893509;29;20052;-82
2021/01/25 00:04:10;;;;;;;15.93;8.25;;;1.90;95.20;;;;;;4869009;29;20042;-82
2021/01/25 00:07:28;;;;;;;16.13;8.07;;;1.60;95.40;;;;;;4871753;29;20029;-81
2021/01/25 00:10:29;;;;;;;15.40;8.73;;;1.10;94.90;;;;;;4886183;29;20030;-83
2021/01/25 00:12:57;;;;;;;13.95;8.75;;;1.50;95.00;;;;;;4874678;29;20043;-82
2021/01/25 00:16:12;;;;;;;16.00;8.55;;;1.20;95.30;;;;;;4864760;29;20026;-82
2021/01/25 00:18:53;;;;;;;15.55;7.53;;;1.00;95.00;;;;;;4883849;29;20033;-84
2021/01/25 00:21:20;;;;;;;15.48;8.23;;;1.30;95.20;;;;;;4890781;29;20042;-82
2021/01/25 00:24:08;;;;;;;16.50;8.35;;;1.30;95.30;;;;;;4882523;29;20040;-81
2021/01/25 00:26:40;;;;;;;15.48;8.70;;;1.20;95.50;;;;;;4875158;29;20038;-81
2021/01/25 00:29:36;;;;;;;18.23;8.20;;;1.10;95.60;;;;;;4868265;29;20084;-82
2021/01/25 00:32:02;;;;;;;15.63;7.45;;;1.10;95.70;;;;;;4886094;29;20018;-82
2021/01/25 00:34:28;;;;;;;16.48;7.60;;;0.90;95.70;;;;;;4886379;29;20033;-83
2021/01/25 00:37:12;;;;;;;12.85;7.80;;;1.00;95.90;;;;;;4886153;29;20036;-82
2021/01/25 00:39:46;;;;;;;14.10;6.63;;;1.00;95.50;;;;;;4880868;29;20022;-83
2021/01/25 00:42:32;;;;;;;11.65;6.82;;;0.90;95.20;;;;;;4933103;23;20108;-83
2021/01/25 00:45:01;;;;;;;17.08;7.93;;;1.00;95.20;;;;;;4918659;29;20036;-83
2021/01/25 00:47:51;;;;;;;20.20;9.32;;;0.90;95.00;;;;;;4923569;29;20041;-81
2021/01/25 00:50:20;;;;;;;17.48;7.25;;;0.60;94.60;;;;;;4914322;29;20025;-82
2021/01/25 00:53:10;;;;;;;15.60;7.22;;;0.90;94.40;;;;;;4919938;29;20035;-82
2021/01/25 00:55:43;;;;;;;17.25;7.88;;;0.90;94.50;;;;;;4928097;29;20036;-83
2021/01/25 00:58:39;;;;;;;12.32;7.22;;;2.10;94.70;;;;;;4923700;29;20052;-82
2021/01/25 01:06:41;;;;;;;14.77;7.03;;;0.70;94.70;;;;;;4883022;29;20029;-81
2021/01/25 01:09:12;;;;;;;19.85;8.68;;;0.60;94.80;;;;;;5145222;23;20040;-80
2021/01/25 01:14:16;;;;;;;22.17;9.10;;;0.60;94.90;;;;;;4931256;23;20088;-80
2021/01/25 01:16:45;;;;;;;19.65;7.85;;;0.50;95.20;;;;;;4915085;29;20040;-80
2021/01/25 01:19:11;;;;;;;22.45;9.32;;;0.30;94.70;;;;;;4917945;29;20036;-82
2021/01/25 01:21:38;;;;;;;16.83;7.85;;;0.50;95.30;;;;;;4940559;23;20028;-82
2021/01/25 01:24:06;;;;;;;17.92;8.77;;;0.50;95.10;;;;;;5088217;23;20071;-79
2021/01/25 01:27:20;;;;;;;18.08;8.15;;;1.60;95.30;;;;;;4903249;29;20044;-82
2021/01/25 01:29:52;;;;;;;15.10;8.35;;;0.50;94.80;;;;;;4884079;29;20102;-83
2021/01/25 01:33:12;;;;;;;13.10;8.20;;;0.50;94.70;;;;;;4882065;29;20070;-83
2021/01/25 01:35:39;;;;;;;15.98;8.50;;;0.30;94.30;;;;;;4888019;29;20092;-83
2021/01/25 01:38:36;;;;;;;15.85;8.48;;;0.40;94.90;;;;;;4903732;29;20061;-82
2021/01/25 01:41:04;;;;;;;20.33;8.82;;;0.30;94.50;;;;;;4905330;29;20013;-82
2021/01/25 01:43:33;;;;;;;;;;;0.30;94.90;;;;;;4903207;29;20061;-83
2021/01/25 01:46:22;;;;;;;22.20;7.97;;;0.20;94.70;;;;;;4903455;29;19903;-83
2021/01/25 01:49:35;;;;;;;26.58;10.30;;;0.10;94.80;;;;;;4903414;29;20021;-83
2021/01/25 01:52:04;;;;;;;16.42;9.40;;;-0.10;95.00;;;;;;5110798;23;20113;-82
2021/01/25 01:56:59;;;;;;;16.77;8.77;;;0.10;94.90;;;;;;4902268;29;20044;-83
2021/01/25 01:59:47;;;;;;;17.08;9.10;;;0.10;95.20;;;;;;4902254;29;20066;-83
2021/01/25 02:02:15;;;;;;;18.02;9.60;;;0.10;94.60;;;;;;4883453;29;20013;-82
2021/01/25 02:04:43;;;;;;;17.05;9.52;;;0.10;95.10;;;;;;4882335;29;20029;-81
2021/01/25 02:07:10;;;;;;;20.70;10.32;;;0.00;94.40;;;;;;4884220;29;20044;-82
2021/01/25 02:12:09;;;;;;;18.00;9.60;;;0.30;93.90;;;;;;4921821;23;20053;-82
2021/01/25 02:22:25;;;;;;;27.45;12.52;;;-0.30;96.00;;;;;;4897949;29;20038;-82
2021/01/25 02:25:14;;;;;;;23.58;11.40;;;-0.50;96.30;;;;;;4909793;29;20088;-83
2021/01/25 02:27:44;;;;;;;22.42;11.77;;;-0.60;97.00;;;;;;4910069;23;20021;-82
2021/01/25 02:30:17;;;;;;;26.13;13.40;;;-0.70;96.90;;;;;;4901562;29;20021;-82
2021/01/25 02:32:44;;;;;;;24.25;11.93;;;-1.00;97.10;;;;;;4918661;29;20017;-82
2021/01/25 02:35:16;;;;;;;32.67;13.63;;;-1.00;97.40;;;;;;4902912;29;20025;-83
2021/01/25 02:37:45;;;;;;;29.42;14.02;;;-0.90;98.20;;;;;;4915669;29;20028;-83
2021/01/25 02:40:13;;;;;;;28.40;13.50;;;-0.90;98.10;;;;;;4915976;29;20041;-82
2021/01/25 02:42:43;;;;;;;28.75;14.23;;;-1.10;97.90;;;;;;4902526;29;20089;-81
2021/01/25 02:45:11;;;;;;;30.27;15.27;;;-0.60;98.40;;;;;;4897850;29;20009;-83
2021/01/25 02:47:40;;;;;;;33.33;14.35;;;-0.90;98.20;;;;;;4901833;29;20017;-83
2021/01/25 02:50:10;;;;;;;34.92;15.07;;;-0.90;98.10;;;;;;4901711;29;20017;-83
2021/01/25 02:52:39;;;;;;;40.00;15.88;;;-1.00;98.10;;;;;;4901270;29;20020;-83
2021/01/25 02:55:12;;;;;;;32.78;15.68;;;-1.10;97.80;;;;;;4921110;29;20073;-82
2021/01/25 02:57:40;;;;;;;38.63;16.13;;;-1.00;98.00;;;;;;4915824;29;20077;-82
2021/01/25 03:00:10;;;;;;;38.42;15.75;;;-1.10;98.70;;;;;;5063680;23;20253;-82
2021/01/25 03:02:38;;;;;;;37.72;15.77;;;-1.60;98.40;;;;;;4900977;29;20033;-82
2021/01/25 03:05:05;;;;;;;37.45;15.32;;;-1.30;98.30;;;;;;4870011;29;20017;-82
2021/01/25 03:07:31;;;;;;;35.85;17.15;;;-1.60;98.40;;;;;;4983643;24;20044;-82
2021/01/25 03:10:01;;;;;;;;;;;-2.20;98.70;;;;;;4921110;29;20037;-83
2021/01/25 03:12:30;;;;;;;40.60;16.15;;;-1.10;98.80;;;;;;4907420;29;19920;-82
2021/01/25 03:14:56;;;;;;;48.67;18.95;;;-1.10;98.70;;;;;;4911568;29;20088;-82
2021/01/25 03:17:24;;;;;;;37.38;18.08;;;-1.20;99.00;;;;;;4923755;29;20061;-82
2021/01/25 03:19:51;;;;;;;44.75;17.50;;;-1.20;98.90;;;;;;4911146;29;20039;-81
2021/01/25 03:22:17;;;;;;;40.45;17.70;;;-1.20;98.90;;;;;;4914819;29;20009;-82
2021/01/25 03:24:56;;;;;;;42.47;16.73;;;-1.20;98.70;;;;;;4919696;29;20017;-82
2021/01/25 03:27:28;;;;;;;35.10;16.05;;;-1.40;98.60;;;;;;5066309;23;20052;-81
2021/01/25 03:29:58;;;;;;;37.75;16.33;;;-1.30;98.70;;;;;;4905094;29;20061;-82
2021/01/25 03:32:24;;;;;;;46.97;18.08;;;-1.20;98.70;;;;;;4905800;29;20033;-81
2021/01/25 03:34:53;;;;;;;47.10;17.58;;;-1.80;99.30;;;;;;4906082;29;20025;-82
2021/01/25 03:37:19;;;;;;;55.30;18.83;;;-1.40;99.00;;;;;;4905433;29;20056;-82
2021/01/25 03:39:45;;;;;;;;;;;-1.40;99.40;;;;;;4906069;29;20044;-82
2021/01/25 03:44:56;;;;;;;40.17;16.45;;;-1.50;98.90;;;;;;4886657;29;20066;-82
2021/01/25 03:47:58;;;;;;;55.10;18.73;;;-1.50;99.50;;;;;;4887591;29;20025;-81
2021/01/25 03:51:00;;;;;;;40.05;17.35;;;-0.90;99.40;;;;;;4887574;29;20022;-83
2021/01/25 03:53:30;;;;;;;39.90;16.23;;;-0.90;99.20;;;;;;4866528;29;20045;-83
2021/01/25 03:56:21;;;;;;;46.03;18.15;;;-1.60;98.70;;;;;;4892834;29;20033;-80
2021/01/25 03:58:50;;;;;;;48.70;18.67;;;-1.30;98.90;;;;;;4896194;29;20044;-82
2021/01/25 04:01:17;;;;;;;47.75;19.10;;;-1.50;98.70;;;;;;4867039;29;20049;-82
2021/01/25 04:04:07;;;;;;;;;;;-1.50;98.90;;;;;;4887443;29;20045;-83
2021/01/25 04:06:34;;;;;;;38.88;15.38;;;-2.60;98.30;;;;;;4886352;29;19892;-82
2021/01/25 04:12:37;;;;;;;47.50;17.58;;;-1.60;98.70;;;;;;4878061;29;20046;-82
2021/01/25 04:15:23;;;;;;;42.20;17.25;;;-2.10;98.90;;;;;;4886655;29;20028;-83
2021/01/25 04:18:01;;;;;;;51.75;19.95;;;-1.60;99.10;;;;;;4886412;29;20043;-82
2021/01/25 04:20:59;;;;;;;50.88;18.77;;;-2.00;99.20;;;;;;4874779;29;20034;-83
2021/01/25 04:23:38;;;;;;;47.58;18.70;;;-1.80;99.40;;;;;;4882907;29;20029;-82
2021/01/25 04:26:04;;;;;;;47.80;18.65;;;-2.00;99.10;;;;;;4896469;29;20046;-83
2021/01/25 04:28:30;;;;;;;;;;;-1.60;99.40;;;;;;4898617;29;20029;-83
2021/01/25 04:31:03;;;;;;;43.83;17.58;;;-1.60;99.50;;;;;;4883235;29;20345;-83
2021/01/25 04:33:49;;;;;;;44.33;17.17;;;-1.70;99.20;;;;;;4874390;29;20038;-83
2021/01/25 04:37:08;;;;;;;50.22;20.23;;;-1.70;99.10;;;;;;4890044;29;20025;-83
2021/01/25 04:39:34;;;;;;;45.75;17.77;;;-2.10;98.90;;;;;;4885355;29;20033;-83
2021/01/25 04:44:49;;;;;;;50.08;19.38;;;-1.80;99.30;;;;;;4879787;29;20033;-83
2021/01/25 04:47:44;;;;;;;;;;;-1.70;99.30;;;;;;4867884;29;20042;-83
2021/01/25 04:50:28;;;;;;;47.17;19.27;;;-1.70;99.40;;;;;;4898223;29;19920;-82
2021/01/25 04:56:23;;;;;;;47.10;19.05;;;-1.70;99.10;;;;;;4862726;29;20024;-83
2021/01/25 04:59:05;;;;;;;46.67;17.83;;;-1.80;99.10;;;;;;4885751;29;20034;-82
2021/01/25 05:01:32;;;;;;;50.92;19.85;;;-1.90;98.90;;;;;;4891661;29;20037;-81
2021/01/25 05:04:03;;;;;;;55.80;20.52;;;-1.80;99.00;;;;;;4881512;29;20082;-82
2021/01/25 05:06:30;;;;;;;54.58;20.77;;;-1.80;99.00;;;;;;5164651;23;20037;-79
2021/01/25 05:10:04;;;;;;;48.47;20.52;;;-1.90;99.30;;;;;;4903547;29;20057;-82
2021/01/25 05:12:46;;;;;;;63.58;20.52;;;-2.00;99.50;;;;;;4903540;29;20036;-82
2021/01/25 05:15:30;;;;;;;56.25;20.98;;;-2.00;99.50;;;;;;5026085;23;20063;-83
2021/01/25 05:18:12;;;;;;;58.15;20.85;;;-1.90;99.50;;;;;;4922977;29;20028;-82
2021/01/25 05:20:44;;;;;;;53.97;20.85;;;-1.90;99.50;;;;;;4908217;29;20025;-83
2021/01/25 05:23:39;;;;;;;60.13;21.90;;;-1.80;99.50;;;;;;4903257;29;20041;-82
2021/01/25 05:36:04;;;;;;;47.63;19.55;;;-2.00;99.20;;;;;;4961769;23;20064;-82
2021/01/25 05:38:33;;;;;;;56.25;20.13;;;-3.10;99.00;;;;;;4914927;29;20039;-82
2021/01/25 05:40:59;;;;;;;48.10;19.17;;;-1.90;99.30;;;;;;4917556;29;20024;-81
2021/01/25 05:43:32;;;;;;;47.55;19.20;;;-2.00;99.40;;;;;;4903097;29;20017;-84
2021/01/25 05:49:58;;;;;;;59.28;20.70;;;-2.10;99.50;;;;;;4866455;29;20041;-84
2021/01/25 05:55:15;;;;;;;57.10;21.98;;;-2.00;99.70;;;;;;4919950;27;20049;-83
2021/01/25 05:58:23;;;;;;;58.45;23.30;;;-2.00;99.70;;;;;;4919757;29;20455;-83
2021/01/25 06:01:15;;;;;;;55.28;21.60;;;-2.00;99.70;;;;;;4920385;29;20627;-83
2021/01/25 06:04:25;;;;;;;69.20;23.00;;;-1.90;99.80;;;;;;4889977;29;20053;-84
2021/01/25 06:07:13;;;;;;;58.85;20.05;;;-2.20;99.60;;;;;;4963548;23;20055;-83
2021/01/25 06:13:03;;;;;;;58.10;22.88;;;-2.00;99.70;;;;;;4939209;23;20051;-83
2021/01/25 06:15:38;;;;;;;69.68;23.13;;;-2.10;99.60;;;;;;4916184;29;20036;-83
2021/01/25 06:18:25;;;;;;;58.60;22.08;;;-2.10;99.40;;;;;;4920792;29;20096;-82
2021/01/25 06:20:58;;;;;;;;;;;-2.00;99.30;;;;;;4922352;29;20017;-83
2021/01/25 06:23:39;;;;;;;58.15;22.38;;;-2.00;99.50;;;;;;4920631;29;19928;-83
2021/01/25 06:28:56;;;;;;;57.33;22.98;;;-2.00;99.60;;;;;;4906964;29;20099;-83
2021/01/25 06:31:33;;;;;;;60.03;23.15;;;-2.00;99.60;;;;;;4892847;29;20017;-83
2021/01/25 06:34:11;;;;;;;44.95;20.38;;;-2.00;99.40;;;;;;4910139;29;20039;-82
2021/01/25 06:37:16;;;;;;;56.22;21.20;;;-2.60;99.40;;;;;;4912082;29;20093;-83
2021/01/25 06:39:46;;;;;;;56.60;21.38;;;-2.10;99.40;;;;;;4917357;29;20040;-84
2021/01/25 06:43:14;;;;;;;60.78;24.88;;;-2.00;99.60;;;;;;4903454;29;20029;-82
2021/01/25 06:48:45;;;;;;;46.90;20.38;;;-2.00;99.30;;;;;;5202110;23;20299;-84
2021/01/25 06:51:14;;;;;;;63.70;22.55;;;-2.00;99.50;;;;;;4921586;29;20041;-84
2021/01/25 06:53:42;;;;;;;48.53;21.02;;;-2.00;99.50;;;;;;4920692;29;20025;-84
2021/01/25 06:58:50;;;;;;;69.60;24.48;;;-2.00;99.40;;;;;;5168656;23;20056;-83
2021/01/25 07:01:20;;;;;;;66.97;23.70;;;-1.30;99.70;;;;;;4920099;29;20009;-84
2021/01/25 07:03:51;;;;;;;62.13;23.48;;;-2.00;99.70;;;;;;4919463;29;20059;-82
2021/01/25 07:37:22;;;;;;;61.63;21.63;;;-2.00;99.30;;;;;;3734169;23;20048;-82
2021/01/25 07:42:24;;;;;;;50.58;20.38;;;-2.00;99.30;;;;;;5576370;23;20028;-83
2021/01/25 07:49:55;;;;;;;44.47;21.00;;;-1.90;99.20;;;;;;4949128;23;20261;-77
2021/01/25 07:52:21;;;;;;;49.35;19.13;;;-1.90;99.10;;;;;;4910425;29;20037;-81
2021/01/25 07:54:50;;;;;;;41.28;17.48;;;-1.90;99.00;;;;;;4901186;29;20052;-81
2021/01/25 07:57:25;;;;;;;46.67;19.48;;;-2.20;98.90;;;;;;4898721;29;20063;-82
2021/01/25 07:59:57;;;;;;;42.40;19.77;;;-1.90;99.00;;;;;;4904464;29;20055;-84
2021/01/25 10:02:37;;;;;;;16.40;7.28;;;0.00;99.10;;;;;;5923067;23;19928;-79
2021/01/25 10:05:05;;;;;;;18.27;6.80;;;0.20;98.30;;;;;;4900382;29;20058;-83
2021/01/25 10:10:36;;;;;;;11.07;4.53;;;0.80;96.90;;;;;;4901808;29;20029;-83
2021/01/25 10:15:38;;;;;;;10.23;4.32;;;1.20;95.90;;;;;;5830069;23;20081;-82
2021/01/25 10:18:04;;;;;;;7.50;4.45;;;1.60;95.00;;;;;;4922214;29;20032;-83
2021/01/25 10:33:28;;;;;;;9.90;3.97;;;2.40;92.60;;;;;;4918652;29;20068;-82
2021/01/25 10:38:30;;;;;;;13.40;3.80;;;2.70;92.50;;;;;;5205746;23;20029;-83
2021/01/25 10:53:52;;;;;;;6.28;3.92;;;3.10;91.60;;;;;;4900662;29;20071;-82
2021/01/25 10:56:25;;;;;;;7.00;3.33;;;3.00;92.10;;;;;;4911188;29;20058;-82
2021/01/25 11:01:57;;;;;;;5.80;3.15;;;3.40;91.10;;;;;;5339696;23;20068;-80
2021/01/25 11:09:35;;;;;;;5.47;3.08;;;3.80;90.60;;;;;;5392634;23;20048;-81
2021/01/25 11:12:02;;;;;;;10.77;3.20;;;3.80;90.30;;;;;;5340049;23;20060;-82
2021/01/25 11:17:03;;;;;;;5.28;2.90;;;3.90;90.10;;;;;;5877936;23;20059;-83
2021/01/25 11:19:29;;;;;;;;;;;4.00;89.80;;;;;;4979418;23;20057;-83
2021/01/25 11:24:31;;;;;;;13.00;3.50;;;4.40;90.30;;;;;;5238771;23;20088;-83
2021/01/25 11:27:00;;;;;;;4.35;2.38;;;4.50;90.30;;;;;;4923442;29;20021;-83
2021/01/25 11:29:30;;;;;;;5.20;2.38;;;5.50;87.50;;;;;;4925193;29;20021;-82
2021/01/25 11:32:02;;;;;;;9.48;2.17;;;4.90;87.70;;;;;;4923462;29;20132;-81
2021/01/25 11:34:28;;;;;;;6.00;2.25;;;5.10;83.60;;;;;;4925498;29;20025;-83
2021/01/25 11:36:57;;;;;;;4.47;2.00;;;5.20;83.80;;;;;;5249429;23;20027;-82
2021/01/25 11:39:26;;;;;;;4.80;1.80;;;5.20;81.60;;;;;;4924353;29;20048;-81
2021/01/25 11:41:58;;;;;;;7.05;2.08;;;5.20;80.10;;;;;;4905938;29;20013;-83
2021/01/25 11:44:24;;;;;;;4.60;1.60;;;5.30;79.00;;;;;;4905841;29;20088;-82
2021/01/25 11:46:53;;;;;;;7.30;2.00;;;5.30;79.40;;;;;;5095049;23;20056;-83
2021/01/25 11:49:22;;;;;;;5.95;2.58;;;5.30;81.30;;;;;;4919705;29;20001;-82
2021/01/25 11:51:51;;;;;;;4.40;2.10;;;5.10;77.90;;;;;;4957807;23;20061;-83
2021/01/25 11:54:24;;;;;;;3.90;1.73;;;5.40;78.40;;;;;;4906559;29;20089;-83
2021/01/25 11:56:50;;;;;;;5.38;2.15;;;5.60;78.70;;;;;;4904515;29;20029;-83
2021/01/25 11:59:19;;;;;;;7.47;2.17;;;5.60;78.30;;;;;;4906131;29;20017;-83
2021/01/25 12:01:45;;;;;;;4.93;2.22;;;5.80;80.90;;;;;;4906213;29;20010;-84
2021/01/25 12:04:11;;;;;;;;;;;5.90;79.70;;;;;;4906332;29;20013;-82
2021/01/25 12:06:37;;;;;;;5.03;1.75;;;5.90;76.40;;;;;;4914223;29;19918;-84
2021/01/25 12:09:05;;;;;;;4.00;1.65;;;6.00;78.00;;;;;;5000012;23;20045;-83
2021/01/25 12:19:18;;;;;;;4.07;1.90;;;6.30;74.50;;;;;;5387611;23;20061;-80
2021/01/25 12:21:50;;;;;;;6.05;2.30;;;6.40;76.10;;;;;;4920800;29;20032;-81
2021/01/25 12:26:56;;;;;;;3.85;2.00;;;7.30;72.20;;;;;;5235940;23;20048;-83
2021/01/25 12:34:50;;;;;;;4.53;2.10;;;8.90;65.20;;;;;;5107575;23;20082;-78
2021/01/25 13:21:18;;;;;;;6.70;2.17;;;7.60;69.90;;;;;;5385324;23;20041;-81
2021/01/25 13:24:27;;;;;;;3.40;1.70;;;7.70;68.50;;;;;;4927679;29;20025;-81
2021/01/25 13:27:02;;;;;;;3.13;1.80;;;7.70;66.10;;;;;;4911284;29;20033;-81
2021/01/25 13:29:29;;;;;;;5.28;1.83;;;7.50;67.50;;;;;;4913885;29;20107;-78
2021/01/25 13:31:55;;;;;;;2.83;1.50;;;8.20;69.00;;;;;;4891975;29;20439;-78
2021/01/25 13:34:38;;;;;;;7.50;2.05;;;7.60;66.70;;;;;;4917984;29;20028;-82
2021/01/25 13:37:05;;;;;;;3.78;1.45;;;7.90;66.10;;;;;;5029166;23;20041;-80
2021/01/25 13:39:33;;;;;;;7.72;1.45;;;8.20;65.20;;;;;;4894728;29;20093;-83
2021/01/25 13:42:00;;;;;;;5.28;2.10;;;8.50;63.00;;;;;;4893249;29;20017;-79
2021/01/25 14:36:17;;;;;;;9.40;1.80;;;7.30;69.50;;;;;;4918145;29;20032;-83
2021/01/25 14:38:44;;;;;;;7.82;1.75;;;7.20;69.80;;;;;;4928790;23;20061;-82
2021/01/25 14:41:10;;;;;;;2.33;1.50;;;7.10;68.40;;;;;;4884146;29;20059;-82
2021/01/25 14:43:37;;;;;;;3.50;1.70;;;7.00;69.80;;;;;;4957979;23;20494;-83
2021/01/25 15:18:42;;;;;;;4.25;2.15;;;6.70;70.20;;;;;;4604412;23;20296;-83
2021/01/25 15:26:19;;;;;;;3.25;1.70;;;6.70;70.10;;;;;;5205268;23;20068;-83
2021/01/25 15:31:27;;;;;;;4.03;1.60;;;6.70;69.00;;;;;;5268214;23;20054;-83
2021/01/25 15:33:56;;;;;;;4.07;1.50;;;7.60;69.10;;;;;;4919542;29;20053;-83
2021/01/25 15:36:25;;;;;;;2.47;1.20;;;6.70;69.10;;;;;;4921093;29;20028;-82
2021/01/25 15:39:13;;;;;;;4.70;1.48;;;6.70;70.20;;;;;;4920999;29;20039;-83
2021/01/25 15:41:59;;;;;;;2.15;1.40;;;6.20;68.20;;;;;;5408337;23;20065;-82
2021/01/25 15:47:29;;;;;;;2.40;1.23;;;6.50;68.80;;;;;;4934948;23;21692;-79
2021/01/25 15:55:38;;;;;;;5.32;1.75;;;6.30;69.30;;;;;;5533883;23;20056;-83
2021/01/25 16:19:35;;;;;;;6.55;1.08;;;5.90;71.30;;;;;;4917623;23;21788;-82
2021/01/25 16:22:08;;;;;;;2.97;1.23;;;5.80;70.00;;;;;;4999719;23;20029;-81
2021/01/25 16:24:38;;;;;;;8.35;1.35;;;5.70;70.60;;;;;;4924112;29;20136;-83
2021/01/25 16:27:05;;;;;;;2.15;1.10;;;5.40;70.30;;;;;;4907849;29;20068;-83
2021/01/25 16:39:14;;;;;;;2.08;1.88;;;5.50;72.00;;;;;;4901531;29;20026;-82
2021/01/25 16:41:41;;;;;;;3.30;1.50;;;5.50;73.60;;;;;;4910451;29;20016;-83
2021/01/25 16:44:19;;;;;;;3.05;1.63;;;5.40;73.30;;;;;;4922337;29;20016;-83
2021/01/25 16:46:45;;;;;;;7.43;1.65;;;5.30;74.20;;;;;;4925063;29;20168;-83
2021/01/25 16:49:14;;;;;;;;;;;4.60;74.70;;;;;;5126625;23;20037;-83
2021/01/25 16:54:14;;;;;;;2.75;1.38;;;5.20;73.40;;;;;;5200090;23;20065;-83
2021/01/25 17:00:13;;;;;;;3.08;1.70;;;4.80;74.90;;;;;;4909691;29;20061;-82
2021/01/25 17:02:40;;;;;;;2.45;1.98;;;5.90;75.90;;;;;;5197823;23;20057;-83
2021/01/25 17:05:08;;;;;;;6.45;1.48;;;4.60;75.70;;;;;;4951599;23;20061;-82
2021/01/25 17:10:30;;;;;;;5.97;1.83;;;4.50;74.70;;;;;;4938877;23;20150;-83
2021/01/25 17:41:26;;;;;;;4.65;1.88;;;4.30;76.40;;;;;;4933096;23;20048;-82
2021/01/25 17:53:29;;;;;;;5.38;3.40;;;4.20;77.60;;;;;;5272409;23;20041;-82
2021/01/25 17:55:59;;;;;;;3.08;1.75;;;4.00;78.20;;;;;;4918835;29;20036;-81
2021/01/25 17:58:41;;;;;;;6.00;2.20;;;3.90;79.80;;;;;;4914336;29;20024;-83
2021/01/25 18:01:08;;;;;;;11.73;3.60;;;3.80;81.40;;;;;;5022030;23;20033;-84
2021/01/25 18:03:34;;;;;;;11.43;3.13;;;3.50;82.80;;;;;;5037731;23;20036;-83
2021/01/25 18:06:08;;;;;;;11.20;5.10;;;3.20;83.90;;;;;;4900917;29;20047;-82
2021/01/25 18:08:34;;;;;;;15.15;6.10;;;3.30;84.60;;;;;;5052202;23;20139;-83
2021/01/25 18:16:04;;;;;;;10.70;4.85;;;2.90;86.50;;;;;;4946000;23;20047;-83
2021/01/25 18:18:30;;;;;;;;;;;2.70;87.30;;;;;;4904277;29;20019;-83
2021/01/25 18:20:56;;;;;;;7.68;4.00;;;2.30;87.80;;;;;;4903688;29;19920;-83
2021/01/25 18:23:23;;;;;;;9.90;3.88;;;3.10;89.30;;;;;;5003638;23;20116;-83
2021/01/25 18:25:51;;;;;;;11.25;4.47;;;2.30;88.50;;;;;;4892266;23;20054;-84
2021/01/25 18:28:19;;;;;;;12.32;6.30;;;3.70;90.20;;;;;;5399048;23;20062;-85
2021/01/25 18:38:31;;;;;;;15.88;7.45;;;2.10;91.00;;;;;;5756686;23;21273;-84
2021/01/25 18:48:56;;;;;;;15.00;7.25;;;1.70;92.10;;;;;;5671412;23;20045;-82
2021/01/25 19:04:19;;;;;;;20.15;8.63;;;1.30;93.30;;;;;;2167199;23;20614;-80
2021/01/25 19:09:55;;;;;;;17.20;6.30;;;1.20;93.20;;;;;;5297551;23;20056;-80
2021/01/25 19:12:24;;;;;;;12.20;5.85;;;1.20;93.70;;;;;;4879957;29;20045;-80
2021/01/25 19:14:50;;;;;;;10.32;5.65;;;1.10;93.80;;;;;;4881797;29;20033;-79
2021/01/25 19:17:17;;;;;;;13.95;7.03;;;1.10;93.70;;;;;;4887743;29;20028;-80
2021/01/25 19:19:43;;;;;;;13.75;5.85;;;1.10;93.80;;;;;;4885651;29;20037;-80
2021/01/25 19:35:07;;;;;;;9.82;6.07;;;0.80;94.80;;;;;;5423213;23;20044;-78
2021/01/25 19:37:35;;;;;;;10.40;5.13;;;0.80;95.20;;;;;;5236292;23;20036;-81
2021/01/25 19:52:59;;;;;;;19.35;7.95;;;0.50;95.50;;;;;;5301636;23;20037;-80
2021/01/25 20:11:18;;;;;;;21.75;9.05;;;0.30;96.20;;;;;;5472630;23;20060;-83
2021/01/25 20:31:55;;;;;;;33.95;11.18;;;0.20;96.30;;;;;;5368000;23;20264;-80
2021/01/25 20:34:22;;;;;;;25.98;10.20;;;0.10;96.40;;;;;;5281071;23;20108;-80
2021/01/25 20:36:48;;;;;;;28.35;10.35;;;0.10;96.70;;;;;;4908534;29;20017;-80
2021/01/25 20:39:15;;;;;;;24.77;12.63;;;-0.70;96.70;;;;;;5280525;23;20402;-75
2021/01/25 20:41:42;;;;;;;22.52;10.70;;;0.00;97.00;;;;;;4936816;29;20024;-81
2021/01/25 20:44:09;;;;;;;28.52;12.93;;;-0.20;97.10;;;;;;4911843;29;20029;-82
2021/01/25 20:46:42;;;;;;;33.03;14.63;;;-1.20;96.90;;;;;;5261935;23;20037;-83
2021/01/25 20:54:23;;;;;;;23.48;11.68;;;0.00;97.20;;;;;;4902625;29;20292;-79
2021/01/25 21:38:17;;;;;;;20.65;10.85;;;0.30;97.90;;;;;;5709234;23;20028;-79
2021/01/25 21:43:22;;;;;;;26.38;10.88;;;0.40;97.50;;;;;;5815039;23;20404;-81
2021/01/25 21:45:48;;;;;;;21.38;11.38;;;0.40;97.70;;;;;;5450518;23;20048;-82
2021/01/25 21:48:14;;;;;;;21.38;11.05;;;0.40;97.50;;;;;;4900133;29;20134;-82
2021/01/25 21:50:41;;;;;;;24.92;12.52;;;0.30;97.50;;;;;;4902012;29;20013;-82
2021/01/25 21:53:48;;;;;;;62.83;28.27;;;1.50;97.70;;;;;;4899557;29;20025;-82
2021/01/25 22:22:07;;;;;;;21.85;10.70;;;0.10;98.10;;;;;;5626214;23;20040;-81
